sensor_id;sensor_type;location;lat;lon;timestamp;P1;durP1;ratioP1;P2;durP2;ratioP2
17886;SDS011;9069;52.044;7.472;2023-03-26T00:00:50;15.90;;;2.88;;
17886;SDS011;9069;52.044;7.472;2023-03-26T00:03:19;9.30;;;2.83;;
17886;SDS011;9069;52.044;7.472;2023-03-26T00:05:47;10.25;;;2.92;;
17886;SDS011;9069;52.044;7.472;2023-03-26T00:08:15;13.00;;;2.90;;
17886;SDS011;9069;52.044;7.472;2023-03-26T00:10:42;12.70;;;3.28;;
17886;SDS011;9069;52.044;7.472;2023-03-26T00:13:09;8.60;;;2.67;;
17886;SDS011;9069;52.044;7.472;2023-03-26T00:15:36;10.20;;;2.60;;
17886;SDS011;9069;52.044;7.472;2023-03-26T00:18:03;10.55;;;2.70;;
17886;SDS011;9069;52.044;7.472;2023-03-26T00:20:30;18.10;;;3.05;;
17886;SDS011;9069;52.044;7.472;2023-03-26T00:23:00;12.60;;;2.90;;
17886;SDS011;9069;52.044;7.472;2023-03-26T00:25:27;13.88;;;3.20;;
17886;SDS011;9069;52.044;7.472;2023-03-26T00:27:53;15.48;;;3.40;;
17886;SDS011;9069;52.044;7.472;2023-03-26T00:30:20;14.38;;;3.30;;
17886;SDS011;9069;52.044;7.472;2023-03-26T00:32:47;15.82;;;3.15;;
17886;SDS011;9069;52.044;7.472;2023-03-26T00:35:19;15.43;;;3.13;;
17886;SDS011;9069;52.044;7.472;2023-03-26T00:37:47;12.18;;;2.90;;
17886;SDS011;9069;52.044;7.472;2023-03-26T00:40:16;10.88;;;3.33;;
17886;SDS011;9069;52.044;7.472;2023-03-26T00:42:43;12.63;;;2.90;;
17886;SDS011;9069;52.044;7.472;2023-03-26T00:45:10;15.80;;;3.65;;
17886;SDS011;9069;52.044;7.472;2023-03-26T00:47:37;10.18;;;2.72;;
17886;SDS011;9069;52.044;7.472;2023-03-26T00:50:05;13.25;;;3.33;;
17886;SDS011;9069;52.044;7.472;2023-03-26T00:52:43;9.68;;;3.00;;
17886;SDS011;9069;52.044;7.472;2023-03-26T00:55:11;11.70;;;2.97;;
17886;SDS011;9069;52.044;7.472;2023-03-26T00:57:38;12.10;;;3.42;;
17886;SDS011;9069;52.044;7.472;2023-03-26T01:00:06;13.35;;;2.95;;
17886;SDS011;9069;52.044;7.472;2023-03-26T01:02:41;10.82;;;2.83;;
17886;SDS011;9069;52.044;7.472;2023-03-26T01:08:29;9.23;;;2.78;;
17886;SDS011;9069;52.044;7.472;2023-03-26T01:11:03;6.28;;;2.58;;
17886;SDS011;9069;52.044;7.472;2023-03-26T01:13:58;8.80;;;2.80;;
17886;SDS011;9069;52.044;7.472;2023-03-26T01:16:35;13.63;;;2.78;;
17886;SDS011;9069;52.044;7.472;2023-03-26T01:19:10;8.23;;;2.40;;
17886;SDS011;9069;52.044;7.472;2023-03-26T01:21:41;8.68;;;2.63;;
17886;SDS011;9069;52.044;7.472;2023-03-26T01:24:08;10.13;;;2.30;;
17886;SDS011;9069;52.044;7.472;2023-03-26T01:29:54;8.55;;;2.53;;
17886;SDS011;9069;52.044;7.472;2023-03-26T01:44:20;8.18;;;2.42;;
17886;SDS011;9069;52.044;7.472;2023-03-26T01:46:53;7.65;;;2.28;;
17886;SDS011;9069;52.044;7.472;2023-03-26T01:49:20;9.30;;;1.85;;
17886;SDS011;9069;52.044;7.472;2023-03-26T01:51:49;6.57;;;2.30;;
17886;SDS011;9069;52.044;7.472;2023-03-26T01:54:17;6.70;;;2.30;;
17886;SDS011;9069;52.044;7.472;2023-03-26T02:07:44;6.97;;;2.58;;
17886;SDS011;9069;52.044;7.472;2023-03-26T02:12:51;7.68;;;2.88;;
17886;SDS011;9069;52.044;7.472;2023-03-26T02:15:18;10.85;;;2.97;;
17886;SDS011;9069;52.044;7.472;2023-03-26T02:17:45;8.90;;;3.10;;
17886;SDS011;9069;52.044;7.472;2023-03-26T02:20:14;7.85;;;2.47;;
17886;SDS011;9069;52.044;7.472;2023-03-26T02:22:44;7.93;;;2.40;;
17886;SDS011;9069;52.044;7.472;2023-03-26T02:25:15;6.25;;;2.67;;
17886;SDS011;9069;52.044;7.472;2023-03-26T02:27:46;10.20;;;2.75;;
17886;SDS011;9069;52.044;7.472;2023-03-26T02:30:16;8.82;;;2.85;;
17886;SDS011;9069;52.044;7.472;2023-03-26T02:32:49;7.60;;;2.40;;
17886;SDS011;9069;52.044;7.472;2023-03-26T02:35:19;12.82;;;3.15;;
17886;SDS011;9069;52.044;7.472;2023-03-26T02:37:50;11.43;;;2.90;;
17886;SDS011;9069;52.044;7.472;2023-03-26T02:40:19;11.07;;;3.10;;
17886;SDS011;9069;52.044;7.472;2023-03-26T02:42:48;8.93;;;2.80;;
17886;SDS011;9069;52.044;7.472;2023-03-26T02:45:15;16.83;;;3.50;;
17886;SDS011;9069;52.044;7.472;2023-03-26T02:48:00;11.93;;;3.53;;
17886;SDS011;9069;52.044;7.472;2023-03-26T02:50:49;14.27;;;3.60;;
17886;SDS011;9069;52.044;7.472;2023-03-26T02:53:47;11.52;;;3.33;;
17886;SDS011;9069;52.044;7.472;2023-03-26T02:56:34;9.55;;;3.38;;
17886;SDS011;9069;52.044;7.472;2023-03-26T02:59:13;13.93;;;3.30;;
17886;SDS011;9069;52.044;7.472;2023-03-26T03:01:43;23.35;;;3.47;;
17886;SDS011;9069;52.044;7.472;2023-03-26T03:04:14;11.63;;;3.13;;
17886;SDS011;9069;52.044;7.472;2023-03-26T03:06:43;15.00;;;3.72;;
17886;SDS011;9069;52.044;7.472;2023-03-26T03:09:10;17.05;;;4.10;;
17886;SDS011;9069;52.044;7.472;2023-03-26T03:12:04;10.98;;;3.60;;
17886;SDS011;9069;52.044;7.472;2023-03-26T03:14:31;13.85;;;4.18;;
17886;SDS011;9069;52.044;7.472;2023-03-26T03:16:58;12.95;;;3.83;;
17886;SDS011;9069;52.044;7.472;2023-03-26T03:19:25;13.38;;;4.30;;
17886;SDS011;9069;52.044;7.472;2023-03-26T03:21:52;24.58;;;5.25;;
17886;SDS011;9069;52.044;7.472;2023-03-26T03:24:19;16.65;;;5.35;;
17886;SDS011;9069;52.044;7.472;2023-03-26T03:26:46;21.40;;;4.25;;
17886;SDS011;9069;52.044;7.472;2023-03-26T03:29:29;20.73;;;4.75;;
17886;SDS011;9069;52.044;7.472;2023-03-26T03:32:02;17.45;;;4.40;;
17886;SDS011;9069;52.044;7.472;2023-03-26T03:34:37;20.95;;;4.72;;
17886;SDS011;9069;52.044;7.472;2023-03-26T03:37:05;18.33;;;4.68;;
17886;SDS011;9069;52.044;7.472;2023-03-26T03:39:40;20.30;;;5.72;;
17886;SDS011;9069;52.044;7.472;2023-03-26T03:42:07;20.52;;;5.07;;
17886;SDS011;9069;52.044;7.472;2023-03-26T03:44:36;24.13;;;5.18;;
17886;SDS011;9069;52.044;7.472;2023-03-26T03:47:10;17.25;;;5.50;;
17886;SDS011;9069;52.044;7.472;2023-03-26T03:49:39;25.67;;;5.15;;
17886;SDS011;9069;52.044;7.472;2023-03-26T03:52:06;21.52;;;5.63;;
17886;SDS011;9069;52.044;7.472;2023-03-26T03:54:38;19.50;;;4.82;;
17886;SDS011;9069;52.044;7.472;2023-03-26T03:57:19;19.13;;;5.70;;
17886;SDS011;9069;52.044;7.472;2023-03-26T04:00:10;17.55;;;4.93;;
17886;SDS011;9069;52.044;7.472;2023-03-26T04:02:41;15.45;;;5.18;;
17886;SDS011;9069;52.044;7.472;2023-03-26T04:05:08;23.23;;;5.88;;
17886;SDS011;9069;52.044;7.472;2023-03-26T04:07:42;10.85;;;4.72;;
17886;SDS011;9069;52.044;7.472;2023-03-26T04:10:25;16.83;;;5.05;;
17886;SDS011;9069;52.044;7.472;2023-03-26T04:13:12;20.98;;;5.07;;
17886;SDS011;9069;52.044;7.472;2023-03-26T04:15:58;22.92;;;5.78;;
17886;SDS011;9069;52.044;7.472;2023-03-26T04:18:25;13.57;;;5.05;;
17886;SDS011;9069;52.044;7.472;2023-03-26T04:20:54;12.18;;;4.43;;
17886;SDS011;9069;52.044;7.472;2023-03-26T04:23:25;19.60;;;5.03;;
17886;SDS011;9069;52.044;7.472;2023-03-26T04:26:00;17.52;;;4.95;;
17886;SDS011;9069;52.044;7.472;2023-03-26T04:28:56;17.65;;;4.85;;
17886;SDS011;9069;52.044;7.472;2023-03-26T04:31:27;24.13;;;5.82;;
17886;SDS011;9069;52.044;7.472;2023-03-26T04:34:05;18.60;;;4.95;;
17886;SDS011;9069;52.044;7.472;2023-03-26T04:36:43;18.95;;;5.15;;
17886;SDS011;9069;52.044;7.472;2023-03-26T04:39:12;17.58;;;5.05;;
17886;SDS011;9069;52.044;7.472;2023-03-26T04:42:08;17.13;;;5.13;;
17886;SDS011;9069;52.044;7.472;2023-03-26T04:44:47;19.98;;;4.95;;
17886;SDS011;9069;52.044;7.472;2023-03-26T04:47:16;21.58;;;6.05;;
17886;SDS011;9069;52.044;7.472;2023-03-26T04:49:45;23.20;;;5.63;;
17886;SDS011;9069;52.044;7.472;2023-03-26T04:52:15;21.60;;;5.00;;
17886;SDS011;9069;52.044;7.472;2023-03-26T04:55:24;29.70;;;5.75;;
17886;SDS011;9069;52.044;7.472;2023-03-26T04:58:05;18.95;;;4.88;;
17886;SDS011;9069;52.044;7.472;2023-03-26T05:00:52;18.67;;;5.80;;
17886;SDS011;9069;52.044;7.472;2023-03-26T05:03:18;19.48;;;6.57;;
17886;SDS011;9069;52.044;7.472;2023-03-26T05:05:46;22.23;;;6.53;;
17886;SDS011;9069;52.044;7.472;2023-03-26T05:08:15;20.98;;;6.43;;
17886;SDS011;9069;52.044;7.472;2023-03-26T05:10:41;19.13;;;6.10;;
17886;SDS011;9069;52.044;7.472;2023-03-26T05:13:13;18.75;;;4.63;;
17886;SDS011;9069;52.044;7.472;2023-03-26T05:15:46;22.23;;;5.90;;
17886;SDS011;9069;52.044;7.472;2023-03-26T05:18:35;25.35;;;5.00;;
17886;SDS011;9069;52.044;7.472;2023-03-26T05:21:02;23.13;;;4.82;;
17886;SDS011;9069;52.044;7.472;2023-03-26T05:23:30;18.85;;;5.15;;
17886;SDS011;9069;52.044;7.472;2023-03-26T05:26:17;23.92;;;5.38;;
17886;SDS011;9069;52.044;7.472;2023-03-26T05:28:44;15.23;;;4.40;;
17886;SDS011;9069;52.044;7.472;2023-03-26T05:31:46;19.65;;;4.28;;
17886;SDS011;9069;52.044;7.472;2023-03-26T05:34:14;18.63;;;5.28;;
17886;SDS011;9069;52.044;7.472;2023-03-26T05:36:40;23.80;;;6.22;;
17886;SDS011;9069;52.044;7.472;2023-03-26T05:39:36;24.73;;;6.25;;
17886;SDS011;9069;52.044;7.472;2023-03-26T05:42:09;25.92;;;6.28;;
17886;SDS011;9069;52.044;7.472;2023-03-26T05:44:56;22.05;;;5.60;;
17886;SDS011;9069;52.044;7.472;2023-03-26T05:47:26;24.83;;;6.97;;
17886;SDS011;9069;52.044;7.472;2023-03-26T05:49:53;16.35;;;5.90;;
17886;SDS011;9069;52.044;7.472;2023-03-26T05:52:20;23.30;;;5.65;;
17886;SDS011;9069;52.044;7.472;2023-03-26T05:55:07;21.33;;;8.13;;
17886;SDS011;9069;52.044;7.472;2023-03-26T05:57:53;19.05;;;7.43;;
17886;SDS011;9069;52.044;7.472;2023-03-26T06:00:38;20.42;;;6.78;;
17886;SDS011;9069;52.044;7.472;2023-03-26T06:03:08;26.88;;;7.47;;
17886;SDS011;9069;52.044;7.472;2023-03-26T06:06:14;29.35;;;6.63;;
17886;SDS011;9069;52.044;7.472;2023-03-26T06:08:53;27.00;;;9.45;;
17886;SDS011;9069;52.044;7.472;2023-03-26T06:11:28;26.45;;;10.73;;
17886;SDS011;9069;52.044;7.472;2023-03-26T06:13:57;28.90;;;9.75;;
17886;SDS011;9069;52.044;7.472;2023-03-26T06:16:25;26.50;;;10.75;;
17886;SDS011;9069;52.044;7.472;2023-03-26T06:19:08;25.30;;;10.55;;
17886;SDS011;9069;52.044;7.472;2023-03-26T06:21:49;24.05;;;10.88;;
17886;SDS011;9069;52.044;7.472;2023-03-26T06:24:23;28.80;;;12.65;;
17886;SDS011;9069;52.044;7.472;2023-03-26T06:27:22;22.83;;;11.38;;
17886;SDS011;9069;52.044;7.472;2023-03-26T06:30:20;26.33;;;10.32;;
17886;SDS011;9069;52.044;7.472;2023-03-26T06:33:05;30.58;;;10.55;;
17886;SDS011;9069;52.044;7.472;2023-03-26T06:35:40;25.17;;;8.80;;
17886;SDS011;9069;52.044;7.472;2023-03-26T06:38:09;21.58;;;8.48;;
17886;SDS011;9069;52.044;7.472;2023-03-26T06:40:37;25.52;;;9.63;;
17886;SDS011;9069;52.044;7.472;2023-03-26T06:43:30;33.20;;;12.57;;
17886;SDS011;9069;52.044;7.472;2023-03-26T06:46:14;26.52;;;8.43;;
17886;SDS011;9069;52.044;7.472;2023-03-26T06:48:59;18.58;;;6.70;;
17886;SDS011;9069;52.044;7.472;2023-03-26T06:51:45;27.23;;;7.55;;
17886;SDS011;9069;52.044;7.472;2023-03-26T06:54:35;16.65;;;6.85;;
17886;SDS011;9069;52.044;7.472;2023-03-26T06:57:18;22.90;;;6.85;;
17886;SDS011;9069;52.044;7.472;2023-03-26T07:00:18;20.48;;;6.25;;
17886;SDS011;9069;52.044;7.472;2023-03-26T07:03:05;25.10;;;5.75;;
17886;SDS011;9069;52.044;7.472;2023-03-26T07:05:50;27.42;;;5.18;;
17886;SDS011;9069;52.044;7.472;2023-03-26T07:08:36;26.20;;;5.00;;
17886;SDS011;9069;52.044;7.472;2023-03-26T07:11:41;25.27;;;5.13;;
17886;SDS011;9069;52.044;7.472;2023-03-26T07:14:26;23.42;;;4.95;;
17886;SDS011;9069;52.044;7.472;2023-03-26T07:17:14;22.17;;;4.43;;
17886;SDS011;9069;52.044;7.472;2023-03-26T07:19:59;21.90;;;5.63;;
17886;SDS011;9069;52.044;7.472;2023-03-26T07:22:26;20.55;;;4.88;;
17886;SDS011;9069;52.044;7.472;2023-03-26T07:25:14;18.85;;;4.88;;
17886;SDS011;9069;52.044;7.472;2023-03-26T07:37:02;12.23;;;3.60;;
17886;SDS011;9069;52.044;7.472;2023-03-26T07:43:24;20.67;;;3.78;;
17886;SDS011;9069;52.044;7.472;2023-03-26T07:46:30;17.77;;;4.25;;
17886;SDS011;9069;52.044;7.472;2023-03-26T07:49:31;21.95;;;6.03;;
17886;SDS011;9069;52.044;7.472;2023-03-26T07:52:21;18.85;;;4.97;;
17886;SDS011;9069;52.044;7.472;2023-03-26T07:55:11;18.00;;;4.05;;
17886;SDS011;9069;52.044;7.472;2023-03-26T07:58:13;20.17;;;5.03;;
17886;SDS011;9069;52.044;7.472;2023-03-26T08:01:11;18.55;;;4.63;;
17886;SDS011;9069;52.044;7.472;2023-03-26T08:18:49;20.88;;;5.03;;
17886;SDS011;9069;52.044;7.472;2023-03-26T08:21:25;18.60;;;4.35;;
17886;SDS011;9069;52.044;7.472;2023-03-26T08:24:02;16.25;;;4.68;;
17886;SDS011;9069;52.044;7.472;2023-03-26T08:32:14;24.70;;;5.38;;
17886;SDS011;9069;52.044;7.472;2023-03-26T08:34:42;23.05;;;4.43;;
17886;SDS011;9069;52.044;7.472;2023-03-26T08:37:10;15.02;;;4.10;;
17886;SDS011;9069;52.044;7.472;2023-03-26T08:39:37;19.92;;;4.40;;
17886;SDS011;9069;52.044;7.472;2023-03-26T08:47:41;20.60;;;5.13;;
17886;SDS011;9069;52.044;7.472;2023-03-26T08:50:49;15.55;;;4.10;;
17886;SDS011;9069;52.044;7.472;2023-03-26T09:01:49;16.20;;;4.90;;
17886;SDS011;9069;52.044;7.472;2023-03-26T09:10:18;25.85;;;5.45;;
17886;SDS011;9069;52.044;7.472;2023-03-26T09:19:00;24.27;;;5.75;;
17886;SDS011;9069;52.044;7.472;2023-03-26T09:27:39;26.00;;;5.50;;
17886;SDS011;9069;52.044;7.472;2023-03-26T09:30:32;19.40;;;5.03;;
17886;SDS011;9069;52.044;7.472;2023-03-26T09:39:02;20.42;;;6.07;;
17886;SDS011;9069;52.044;7.472;2023-03-26T09:54:41;21.98;;;5.57;;
17886;SDS011;9069;52.044;7.472;2023-03-26T10:02:44;19.25;;;5.32;;
17886;SDS011;9069;52.044;7.472;2023-03-26T10:08:26;20.80;;;4.90;;
17886;SDS011;9069;52.044;7.472;2023-03-26T10:34:01;11.95;;;4.20;;
17886;SDS011;9069;52.044;7.472;2023-03-26T10:37:08;17.58;;;4.70;;
17886;SDS011;9069;52.044;7.472;2023-03-26T10:42:42;14.85;;;3.80;;
17886;SDS011;9069;52.044;7.472;2023-03-26T10:51:22;11.77;;;4.55;;
17886;SDS011;9069;52.044;7.472;2023-03-26T10:54:16;14.45;;;3.75;;
17886;SDS011;9069;52.044;7.472;2023-03-26T10:57:20;12.45;;;4.10;;
17886;SDS011;9069;52.044;7.472;2023-03-26T10:59:48;18.73;;;4.80;;
17886;SDS011;9069;52.044;7.472;2023-03-26T11:05:00;24.25;;;7.28;;
17886;SDS011;9069;52.044;7.472;2023-03-26T11:21:23;14.63;;;5.00;;
17886;SDS011;9069;52.044;7.472;2023-03-26T11:27:08;17.67;;;6.25;;
17886;SDS011;9069;52.044;7.472;2023-03-26T11:29:58;18.02;;;5.60;;
17886;SDS011;9069;52.044;7.472;2023-03-26T11:32:47;17.33;;;6.63;;
17886;SDS011;9069;52.044;7.472;2023-03-26T11:38:17;15.57;;;6.50;;
17886;SDS011;9069;52.044;7.472;2023-03-26T11:41:03;15.35;;;7.18;;
17886;SDS011;9069;52.044;7.472;2023-03-26T11:44:18;16.75;;;5.20;;
17886;SDS011;9069;52.044;7.472;2023-03-26T11:46:48;15.73;;;5.45;;
17886;SDS011;9069;52.044;7.472;2023-03-26T11:49:17;13.38;;;5.32;;
17886;SDS011;9069;52.044;7.472;2023-03-26T11:51:46;14.90;;;5.43;;
17886;SDS011;9069;52.044;7.472;2023-03-26T11:54:14;11.50;;;5.25;;
17886;SDS011;9069;52.044;7.472;2023-03-26T11:56:42;16.08;;;5.18;;
17886;SDS011;9069;52.044;7.472;2023-03-26T11:59:35;9.68;;;4.38;;
17886;SDS011;9069;52.044;7.472;2023-03-26T12:02:26;9.73;;;3.88;;
17886;SDS011;9069;52.044;7.472;2023-03-26T12:07:41;7.18;;;4.22;;
17886;SDS011;9069;52.044;7.472;2023-03-26T12:15:46;8.05;;;4.35;;
17886;SDS011;9069;52.044;7.472;2023-03-26T12:18:19;9.18;;;4.07;;
17886;SDS011;9069;52.044;7.472;2023-03-26T12:26:37;10.07;;;4.43;;
17886;SDS011;9069;52.044;7.472;2023-03-26T12:29:14;10.13;;;5.32;;
17886;SDS011;9069;52.044;7.472;2023-03-26T12:34:33;11.50;;;5.80;;
17886;SDS011;9069;52.044;7.472;2023-03-26T12:37:03;13.85;;;5.32;;
17886;SDS011;9069;52.044;7.472;2023-03-26T12:39:36;13.35;;;5.95;;
17886;SDS011;9069;52.044;7.472;2023-03-26T12:42:29;13.48;;;6.90;;
17886;SDS011;9069;52.044;7.472;2023-03-26T12:45:27;10.30;;;5.15;;
17886;SDS011;9069;52.044;7.472;2023-03-26T12:48:03;8.85;;;4.65;;
17886;SDS011;9069;52.044;7.472;2023-03-26T12:53:41;10.00;;;5.22;;
17886;SDS011;9069;52.044;7.472;2023-03-26T13:05:42;6.00;;;3.45;;
17886;SDS011;9069;52.044;7.472;2023-03-26T13:19:13;8.98;;;4.20;;
17886;SDS011;9069;52.044;7.472;2023-03-26T13:21:50;14.73;;;4.05;;
17886;SDS011;9069;52.044;7.472;2023-03-26T13:32:51;9.52;;;4.05;;
17886;SDS011;9069;52.044;7.472;2023-03-26T13:40:44;8.57;;;4.43;;
17886;SDS011;9069;52.044;7.472;2023-03-26T13:51:30;9.18;;;4.25;;
17886;SDS011;9069;52.044;7.472;2023-03-26T13:56:43;7.97;;;3.85;;
17886;SDS011;9069;52.044;7.472;2023-03-26T13:59:19;12.70;;;5.55;;
17886;SDS011;9069;52.044;7.472;2023-03-26T14:02:01;7.15;;;4.45;;
17886;SDS011;9069;52.044;7.472;2023-03-26T14:04:37;10.43;;;4.50;;
17886;SDS011;9069;52.044;7.472;2023-03-26T14:09:50;10.77;;;3.88;;
17886;SDS011;9069;52.044;7.472;2023-03-26T14:12:26;16.23;;;3.90;;
17886;SDS011;9069;52.044;7.472;2023-03-26T14:15:21;15.00;;;4.65;;
17886;SDS011;9069;52.044;7.472;2023-03-26T14:29:39;8.00;;;3.67;;
17886;SDS011;9069;52.044;7.472;2023-03-26T14:36:00;13.70;;;3.38;;
17886;SDS011;9069;52.044;7.472;2023-03-26T14:41:18;16.90;;;3.75;;
17886;SDS011;9069;52.044;7.472;2023-03-26T14:46:59;13.57;;;3.45;;
17886;SDS011;9069;52.044;7.472;2023-03-26T14:49:47;9.85;;;3.13;;
17886;SDS011;9069;52.044;7.472;2023-03-26T14:52:46;15.57;;;3.40;;
17886;SDS011;9069;52.044;7.472;2023-03-26T14:55:39;16.17;;;3.53;;
17886;SDS011;9069;52.044;7.472;2023-03-26T15:12:35;14.77;;;2.40;;
17886;SDS011;9069;52.044;7.472;2023-03-26T15:44:03;11.68;;;2.47;;
17886;SDS011;9069;52.044;7.472;2023-03-26T15:46:57;5.03;;;1.98;;
17886;SDS011;9069;52.044;7.472;2023-03-26T15:52:35;12.13;;;2.45;;
17886;SDS011;9069;52.044;7.472;2023-03-26T15:58:04;9.15;;;2.85;;
17886;SDS011;9069;52.044;7.472;2023-03-26T16:00:33;14.35;;;3.05;;
17886;SDS011;9069;52.044;7.472;2023-03-26T16:08:25;13.10;;;2.90;;
17886;SDS011;9069;52.044;7.472;2023-03-26T16:11:04;18.85;;;3.65;;
17886;SDS011;9069;52.044;7.472;2023-03-26T16:13:41;15.05;;;3.03;;
17886;SDS011;9069;52.044;7.472;2023-03-26T16:21:24;11.27;;;3.35;;
17886;SDS011;9069;52.044;7.472;2023-03-26T16:29:18;12.35;;;2.58;;
17886;SDS011;9069;52.044;7.472;2023-03-26T16:34:41;8.63;;;2.38;;
17886;SDS011;9069;52.044;7.472;2023-03-26T16:48:39;15.95;;;3.17;;
17886;SDS011;9069;52.044;7.472;2023-03-26T16:51:32;9.20;;;2.33;;
17886;SDS011;9069;52.044;7.472;2023-03-26T16:54:11;11.73;;;3.28;;
17886;SDS011;9069;52.044;7.472;2023-03-26T16:56:55;10.65;;;2.30;;
17886;SDS011;9069;52.044;7.472;2023-03-26T17:08:06;11.80;;;2.53;;
17886;SDS011;9069;52.044;7.472;2023-03-26T17:11:18;9.88;;;2.20;;
17886;SDS011;9069;52.044;7.472;2023-03-26T17:16:43;14.88;;;2.30;;
17886;SDS011;9069;52.044;7.472;2023-03-26T17:27:45;9.65;;;2.50;;
17886;SDS011;9069;52.044;7.472;2023-03-26T17:33:48;10.25;;;2.47;;
17886;SDS011;9069;52.044;7.472;2023-03-26T17:44:26;10.73;;;2.08;;
17886;SDS011;9069;52.044;7.472;2023-03-26T17:47:12;11.55;;;2.65;;
17886;SDS011;9069;52.044;7.472;2023-03-26T17:50:06;12.40;;;3.45;;
17886;SDS011;9069;52.044;7.472;2023-03-26T17:53:01;12.45;;;2.63;;
17886;SDS011;9069;52.044;7.472;2023-03-26T17:55:31;7.47;;;1.83;;
17886;SDS011;9069;52.044;7.472;2023-03-26T17:58:02;10.90;;;2.80;;
17886;SDS011;9069;52.044;7.472;2023-03-26T18:00:33;14.20;;;2.78;;
17886;SDS011;9069;52.044;7.472;2023-03-26T18:03:17;14.05;;;1.88;;
17886;SDS011;9069;52.044;7.472;2023-03-26T18:06:03;11.13;;;2.28;;
17886;SDS011;9069;52.044;7.472;2023-03-26T18:08:40;11.40;;;1.83;;
17886;SDS011;9069;52.044;7.472;2023-03-26T18:11:33;13.60;;;2.22;;
17886;SDS011;9069;52.044;7.472;2023-03-26T18:17:03;14.50;;;2.42;;
17886;SDS011;9069;52.044;7.472;2023-03-26T18:19:44;10.48;;;2.03;;
17886;SDS011;9069;52.044;7.472;2023-03-26T18:22:26;10.27;;;1.90;;
17886;SDS011;9069;52.044;7.472;2023-03-26T18:24:56;6.75;;;1.58;;
17886;SDS011;9069;52.044;7.472;2023-03-26T18:27:25;9.60;;;2.17;;
17886;SDS011;9069;52.044;7.472;2023-03-26T18:29:59;8.75;;;2.42;;
17886;SDS011;9069;52.044;7.472;2023-03-26T18:32:29;5.93;;;1.63;;
17886;SDS011;9069;52.044;7.472;2023-03-26T18:35:00;10.48;;;2.15;;
17886;SDS011;9069;52.044;7.472;2023-03-26T18:37:40;19.42;;;2.78;;
17886;SDS011;9069;52.044;7.472;2023-03-26T18:40:12;10.50;;;1.95;;
17886;SDS011;9069;52.044;7.472;2023-03-26T18:42:42;9.35;;;1.90;;
17886;SDS011;9069;52.044;7.472;2023-03-26T18:47:54;10.57;;;2.35;;
17886;SDS011;9069;52.044;7.472;2023-03-26T18:50:27;11.55;;;2.00;;
17886;SDS011;9069;52.044;7.472;2023-03-26T18:53:06;8.85;;;1.98;;
17886;SDS011;9069;52.044;7.472;2023-03-26T18:55:41;16.58;;;2.53;;
17886;SDS011;9069;52.044;7.472;2023-03-26T18:58:19;8.40;;;1.98;;
17886;SDS011;9069;52.044;7.472;2023-03-26T19:01:08;6.72;;;1.95;;
17886;SDS011;9069;52.044;7.472;2023-03-26T19:03:45;9.60;;;1.80;;
17886;SDS011;9069;52.044;7.472;2023-03-26T19:06:13;9.13;;;2.00;;
17886;SDS011;9069;52.044;7.472;2023-03-26T19:08:41;7.55;;;1.50;;
17886;SDS011;9069;52.044;7.472;2023-03-26T19:11:10;14.18;;;2.00;;
17886;SDS011;9069;52.044;7.472;2023-03-26T19:13:40;10.60;;;1.95;;
17886;SDS011;9069;52.044;7.472;2023-03-26T19:16:11;11.50;;;2.00;;
17886;SDS011;9069;52.044;7.472;2023-03-26T19:18:50;7.57;;;2.40;;
17886;SDS011;9069;52.044;7.472;2023-03-26T19:21:17;8.55;;;1.42;;
17886;SDS011;9069;52.044;7.472;2023-03-26T19:23:48;15.23;;;1.73;;
17886;SDS011;9069;52.044;7.472;2023-03-26T19:26:16;5.75;;;1.50;;
17886;SDS011;9069;52.044;7.472;2023-03-26T19:28:45;9.32;;;1.85;;
17886;SDS011;9069;52.044;7.472;2023-03-26T19:36:30;14.15;;;2.05;;
17886;SDS011;9069;52.044;7.472;2023-03-26T19:44:02;7.93;;;1.90;;
17886;SDS011;9069;52.044;7.472;2023-03-26T19:46:37;10.90;;;1.88;;
17886;SDS011;9069;52.044;7.472;2023-03-26T19:49:27;6.68;;;2.08;;
17886;SDS011;9069;52.044;7.472;2023-03-26T19:52:02;7.03;;;2.17;;
17886;SDS011;9069;52.044;7.472;2023-03-26T19:57:34;11.05;;;1.70;;
17886;SDS011;9069;52.044;7.472;2023-03-26T20:00:02;9.95;;;2.00;;
17886;SDS011;9069;52.044;7.472;2023-03-26T20:02:30;16.27;;;2.17;;
17886;SDS011;9069;52.044;7.472;2023-03-26T20:04:57;14.10;;;3.00;;
17886;SDS011;9069;52.044;7.472;2023-03-26T20:07:24;16.70;;;4.20;;
17886;SDS011;9069;52.044;7.472;2023-03-26T20:10:02;14.63;;;2.80;;
17886;SDS011;9069;52.044;7.472;2023-03-26T20:12:30;9.35;;;1.77;;
17886;SDS011;9069;52.044;7.472;2023-03-26T20:14:57;11.85;;;2.45;;
17886;SDS011;9069;52.044;7.472;2023-03-26T20:17:25;7.28;;;1.77;;
17886;SDS011;9069;52.044;7.472;2023-03-26T20:19:52;13.57;;;2.00;;
17886;SDS011;9069;52.044;7.472;2023-03-26T20:22:19;5.60;;;1.33;;
17886;SDS011;9069;52.044;7.472;2023-03-26T20:24:46;10.55;;;1.70;;
17886;SDS011;9069;52.044;7.472;2023-03-26T20:27:13;10.82;;;1.83;;
17886;SDS011;9069;52.044;7.472;2023-03-26T20:29:40;8.95;;;1.65;;
17886;SDS011;9069;52.044;7.472;2023-03-26T20:32:16;14.45;;;1.73;;
17886;SDS011;9069;52.044;7.472;2023-03-26T20:34:44;10.88;;;1.80;;
17886;SDS011;9069;52.044;7.472;2023-03-26T20:37:15;6.55;;;1.65;;
17886;SDS011;9069;52.044;7.472;2023-03-26T20:39:42;13.02;;;1.75;;
17886;SDS011;9069;52.044;7.472;2023-03-26T20:42:09;10.57;;;2.10;;
17886;SDS011;9069;52.044;7.472;2023-03-26T20:44:38;10.77;;;1.85;;
17886;SDS011;9069;52.044;7.472;2023-03-26T20:47:07;13.80;;;2.45;;
17886;SDS011;9069;52.044;7.472;2023-03-26T20:49:41;12.45;;;1.90;;
17886;SDS011;9069;52.044;7.472;2023-03-26T20:52:08;10.25;;;2.47;;
17886;SDS011;9069;52.044;7.472;2023-03-26T20:54:38;13.80;;;2.42;;
17886;SDS011;9069;52.044;7.472;2023-03-26T20:57:05;7.97;;;1.65;;
17886;SDS011;9069;52.044;7.472;2023-03-26T20:59:32;4.50;;;1.35;;
17886;SDS011;9069;52.044;7.472;2023-03-26T21:01:59;5.47;;;1.80;;
17886;SDS011;9069;52.044;7.472;2023-03-26T21:04:26;11.73;;;1.70;;
17886;SDS011;9069;52.044;7.472;2023-03-26T21:06:53;17.75;;;2.90;;
17886;SDS011;9069;52.044;7.472;2023-03-26T21:09:36;13.63;;;2.17;;
17886;SDS011;9069;52.044;7.472;2023-03-26T21:12:05;12.25;;;2.13;;
17886;SDS011;9069;52.044;7.472;2023-03-26T21:14:46;15.45;;;2.10;;
17886;SDS011;9069;52.044;7.472;2023-03-26T21:17:14;8.90;;;2.17;;
17886;SDS011;9069;52.044;7.472;2023-03-26T21:19:43;10.57;;;1.73;;
17886;SDS011;9069;52.044;7.472;2023-03-26T21:27:31;8.20;;;1.40;;
17886;SDS011;9069;52.044;7.472;2023-03-26T21:30:16;11.45;;;2.00;;
17886;SDS011;9069;52.044;7.472;2023-03-26T21:32:44;8.82;;;1.95;;
17886;SDS011;9069;52.044;7.472;2023-03-26T21:35:11;15.70;;;2.15;;
17886;SDS011;9069;52.044;7.472;2023-03-26T21:37:40;7.70;;;1.80;;
17886;SDS011;9069;52.044;7.472;2023-03-26T21:40:09;9.63;;;3.08;;
17886;SDS011;9069;52.044;7.472;2023-03-26T21:42:42;10.68;;;1.75;;
17886;SDS011;9069;52.044;7.472;2023-03-26T21:45:11;12.75;;;1.83;;
17886;SDS011;9069;52.044;7.472;2023-03-26T21:47:38;8.80;;;1.80;;
17886;SDS011;9069;52.044;7.472;2023-03-26T21:50:07;10.20;;;1.85;;
17886;SDS011;9069;52.044;7.472;2023-03-26T21:52:36;8.20;;;1.85;;
17886;SDS011;9069;52.044;7.472;2023-03-26T21:55:15;7.97;;;1.63;;
17886;SDS011;9069;52.044;7.472;2023-03-26T21:57:59;12.00;;;1.40;;
17886;SDS011;9069;52.044;7.472;2023-03-26T22:00:34;10.07;;;1.90;;
17886;SDS011;9069;52.044;7.472;2023-03-26T22:05:58;5.95;;;1.50;;
17886;SDS011;9069;52.044;7.472;2023-03-26T22:08:39;9.93;;;1.50;;
17886;SDS011;9069;52.044;7.472;2023-03-26T22:11:07;15.48;;;2.25;;
17886;SDS011;9069;52.044;7.472;2023-03-26T22:13:35;18.60;;;2.28;;
17886;SDS011;9069;52.044;7.472;2023-03-26T22:16:04;8.75;;;1.58;;
17886;SDS011;9069;52.044;7.472;2023-03-26T22:18:32;9.50;;;1.60;;
17886;SDS011;9069;52.044;7.472;2023-03-26T22:20:59;8.82;;;2.10;;
17886;SDS011;9069;52.044;7.472;2023-03-26T22:23:26;6.25;;;1.60;;
17886;SDS011;9069;52.044;7.472;2023-03-26T22:25:59;8.15;;;1.80;;
17886;SDS011;9069;52.044;7.472;2023-03-26T22:28:25;9.90;;;2.95;;